sensor_id;sensor_type;location;lat;lon;timestamp;pressure;altitude;pressure_sealevel;temperature;humidity
7990;BME280;4040;42.848;23.034;2023-03-12T00:00:54;94076.28;;;1.70;100.00
7990;BME280;4040;42.848;23.034;2023-03-12T00:11:06;94097.25;;;1.49;100.00
7990;BME280;4040;42.848;23.034;2023-03-12T00:16:56;94098.72;;;1.43;100.00
7990;BME280;4040;42.848;23.034;2023-03-12T00:22:45;94112.38;;;1.45;100.00
7990;BME280;4040;42.848;23.034;2023-03-12T00:28:35;94122.19;;;1.41;100.00
7990;BME280;4040;42.848;23.034;2023-03-12T00:34:25;94129.03;;;1.42;100.00
7990;BME280;4040;42.848;23.034;2023-03-12T00:40:14;94129.81;;;1.46;100.00
7990;BME280;4040;42.848;23.034;2023-03-12T00:46:03;94123.75;;;1.46;100.00
7990;BME280;4040;42.848;23.034;2023-03-12T00:51:53;94122.88;;;1.38;100.00
7990;BME280;4040;42.848;23.034;2023-03-12T00:57:42;94121.38;;;1.37;100.00
7990;BME280;4040;42.848;23.034;2023-03-12T01:03:31;94133.50;;;1.38;100.00
7990;BME280;4040;42.848;23.034;2023-03-12T01:13:42;94127.91;;;1.17;100.00
7990;BME280;4040;42.848;23.034;2023-03-12T01:19:31;94136.59;;;1.14;100.00
7990;BME280;4040;42.848;23.034;2023-03-12T01:25:20;94128.75;;;1.21;100.00
7990;BME280;4040;42.848;23.034;2023-03-12T01:31:15;94140.16;;;1.25;100.00
7990;BME280;4040;42.848;23.034;2023-03-12T01:37:06;94144.69;;;1.25;100.00
7990;BME280;4040;42.848;23.034;2023-03-12T01:42:56;94147.72;;;1.23;100.00
7990;BME280;4040;42.848;23.034;2023-03-12T01:48:49;94137.78;;;1.17;100.00
7990;BME280;4040;42.848;23.034;2023-03-12T01:54:40;94135.16;;;0.94;100.00
7990;BME280;4040;42.848;23.034;2023-03-12T02:00:30;94157.09;;;0.91;100.00
7990;BME280;4040;42.848;23.034;2023-03-12T02:06:24;94168.44;;;0.92;100.00
7990;BME280;4040;42.848;23.034;2023-03-12T02:16:35;94168.91;;;0.97;100.00
7990;BME280;4040;42.848;23.034;2023-03-12T02:22:26;94163.00;;;0.81;100.00
7990;BME280;4040;42.848;23.034;2023-03-12T02:28:20;94165.31;;;0.86;100.00
7990;BME280;4040;42.848;23.034;2023-03-12T02:34:10;94180.31;;;0.75;100.00
7990;BME280;4040;42.848;23.034;2023-03-12T02:40:03;94181.88;;;0.80;100.00
7990;BME280;4040;42.848;23.034;2023-03-12T02:45:54;94184.47;;;0.76;100.00
7990;BME280;4040;42.848;23.034;2023-03-12T02:51:44;94141.66;;;0.48;100.00
7990;BME280;4040;42.848;23.034;2023-03-12T02:57:33;94178.59;;;0.86;100.00
7990;BME280;4040;42.848;23.034;2023-03-12T03:03:25;94193.19;;;0.99;100.00
7990;BME280;4040;42.848;23.034;2023-03-12T03:09:13;94205.25;;;0.97;100.00
7990;BME280;4040;42.848;23.034;2023-03-12T03:19:25;94208.56;;;0.90;100.00
7990;BME280;4040;42.848;23.034;2023-03-12T03:25:14;94215.28;;;0.84;100.00
7990;BME280;4040;42.848;23.034;2023-03-12T03:31:04;94207.34;;;0.84;100.00
7990;BME280;4040;42.848;23.034;2023-03-12T03:36:55;94201.69;;;0.86;100.00
7990;BME280;4040;42.848;23.034;2023-03-12T03:42:43;94229.53;;;0.76;100.00
7990;BME280;4040;42.848;23.034;2023-03-12T03:48:32;94228.84;;;0.79;100.00
7990;BME280;4040;42.848;23.034;2023-03-12T03:54:23;94243.13;;;0.97;100.00
7990;BME280;4040;42.848;23.034;2023-03-12T04:00:13;94247.03;;;0.81;100.00
7990;BME280;4040;42.848;23.034;2023-03-12T04:06:05;94237.66;;;0.64;100.00
7990;BME280;4040;42.848;23.034;2023-03-12T04:11:55;94268.06;;;0.70;100.00
7990;BME280;4040;42.848;23.034;2023-03-12T04:22:06;94280.63;;;0.54;100.00
7990;BME280;4040;42.848;23.034;2023-03-12T04:27:56;94282.72;;;0.45;100.00
7990;BME280;4040;42.848;23.034;2023-03-12T04:33:44;94289.97;;;0.48;100.00
7990;BME280;4040;42.848;23.034;2023-03-12T04:39:33;94313.44;;;0.50;100.00
7990;BME280;4040;42.848;23.034;2023-03-12T04:45:24;94274.84;;;0.30;100.00
7990;BME280;4040;42.848;23.034;2023-03-12T04:51:12;94317.69;;;0.54;100.00
7990;BME280;4040;42.848;23.034;2023-03-12T04:57:01;94302.81;;;0.27;100.00
7990;BME280;4040;42.848;23.034;2023-03-12T05:02:52;94337.59;;;0.45;100.00
7990;BME280;4040;42.848;23.034;2023-03-12T05:09:00;94344.19;;;0.54;100.00
7990;BME280;4040;42.848;23.034;2023-03-12T05:14:50;94367.28;;;0.54;100.00
7990;BME280;4040;42.848;23.034;2023-03-12T05:20:58;94375.31;;;0.57;100.00
7990;BME280;4040;42.848;23.034;2023-03-12T05:26:47;94371.38;;;0.51;100.00
7990;BME280;4040;42.848;23.034;2023-03-12T05:32:36;94377.81;;;0.69;100.00
7990;BME280;4040;42.848;23.034;2023-03-12T05:38:28;94356.28;;;1.57;100.00
7990;BME280;4040;42.848;23.034;2023-03-12T05:44:16;94391.72;;;3.45;100.00
7990;BME280;4040;42.848;23.034;2023-03-12T05:50:06;94391.34;;;5.18;100.00
7990;BME280;4040;42.848;23.034;2023-03-12T05:56:01;94374.69;;;6.19;86.80
7990;BME280;4040;42.848;23.034;2023-03-12T06:01:50;94384.25;;;6.20;72.58
7990;BME280;4040;42.848;23.034;2023-03-12T06:07:39;94425.09;;;6.56;72.31
7990;BME280;4040;42.848;23.034;2023-03-12T06:13:29;94402.69;;;7.32;63.34
7990;BME280;4040;42.848;23.034;2023-03-12T06:19:18;94426.41;;;8.02;60.61
7990;BME280;4040;42.848;23.034;2023-03-12T06:25:07;94413.59;;;8.27;57.62
7990;BME280;4040;42.848;23.034;2023-03-12T06:31:08;94441.47;;;8.84;53.51
7990;BME280;4040;42.848;23.034;2023-03-12T06:36:57;94466.75;;;10.16;50.06
7990;BME280;4040;42.848;23.034;2023-03-12T06:42:45;94471.53;;;11.04;45.59
7990;BME280;4040;42.848;23.034;2023-03-12T06:48:36;94479.22;;;9.74;45.54
7990;BME280;4040;42.848;23.034;2023-03-12T06:54:27;94457.13;;;8.48;49.45
7990;BME280;4040;42.848;23.034;2023-03-12T07:00:16;94459.09;;;8.88;47.88
7990;BME280;4040;42.848;23.034;2023-03-12T07:06:13;94470.03;;;8.64;48.42
7990;BME280;4040;42.848;23.034;2023-03-12T07:12:02;94498.94;;;7.74;50.99
7990;BME280;4040;42.848;23.034;2023-03-12T07:17:51;94475.56;;;9.61;48.69
7990;BME280;4040;42.848;23.034;2023-03-12T07:28:04;94471.06;;;10.86;43.23
7990;BME280;4040;42.848;23.034;2023-03-12T07:33:53;94524.84;;;9.14;47.92
7990;BME280;4040;42.848;23.034;2023-03-12T07:39:42;94515.72;;;10.34;43.93
7990;BME280;4040;42.848;23.034;2023-03-12T07:45:32;94525.59;;;10.14;44.16
7990;BME280;4040;42.848;23.034;2023-03-12T07:51:21;94506.81;;;10.11;44.22
7990;BME280;4040;42.848;23.034;2023-03-12T07:57:09;94510.28;;;10.64;43.73
7990;BME280;4040;42.848;23.034;2023-03-12T08:03:00;94522.00;;;10.77;41.56
7990;BME280;4040;42.848;23.034;2023-03-12T08:08:48;94528.31;;;10.14;42.21
7990;BME280;4040;42.848;23.034;2023-03-12T08:14:37;94540.81;;;9.94;42.45
7990;BME280;4040;42.848;23.034;2023-03-12T08:20:27;94543.97;;;10.49;42.06
7990;BME280;4040;42.848;23.034;2023-03-12T08:30:38;94515.34;;;11.51;41.60
7990;BME280;4040;42.848;23.034;2023-03-12T08:36:28;94551.53;;;11.53;38.38
7990;BME280;4040;42.848;23.034;2023-03-12T08:42:17;94546.63;;;11.02;39.21
7990;BME280;4040;42.848;23.034;2023-03-12T08:48:06;94559.81;;;11.20;38.79
7990;BME280;4040;42.848;23.034;2023-03-12T08:53:57;94554.34;;;12.08;38.54
7990;BME280;4040;42.848;23.034;2023-03-12T08:59:46;94539.41;;;12.39;37.20
7990;BME280;4040;42.848;23.034;2023-03-12T09:05:34;94559.16;;;12.36;38.02
7990;BME280;4040;42.848;23.034;2023-03-12T09:11:25;94550.47;;;12.80;35.93
7990;BME280;4040;42.848;23.034;2023-03-12T09:17:13;94548.38;;;11.12;39.49
7990;BME280;4040;42.848;23.034;2023-03-12T09:23:02;94557.44;;;12.07;38.25
7990;BME280;4040;42.848;23.034;2023-03-12T09:33:14;94561.34;;;14.42;36.12
7990;BME280;4040;42.848;23.034;2023-03-12T09:39:07;94548.06;;;15.68;32.25
7990;BME280;4040;42.848;23.034;2023-03-12T09:44:57;94566.13;;;14.38;35.13
7990;BME280;4040;42.848;23.034;2023-03-12T09:50:50;94552.69;;;15.22;34.66
7990;BME280;4040;42.848;23.034;2023-03-12T09:56:39;94557.44;;;16.10;33.28
7990;BME280;4040;42.848;23.034;2023-03-12T10:02:46;94500.66;;;13.86;33.07
7990;BME280;4040;42.848;23.034;2023-03-12T10:08:49;94562.34;;;15.47;34.36
7990;BME280;4040;42.848;23.034;2023-03-12T10:14:53;94556.41;;;14.65;35.16
7990;BME280;4040;42.848;23.034;2023-03-12T10:20:52;94578.94;;;14.75;33.43
7990;BME280;4040;42.848;23.034;2023-03-12T10:26:48;94549.06;;;15.96;33.01
7990;BME280;4040;42.848;23.034;2023-03-12T10:32:39;67518.78;;;-140.34;100.00
7990;BME280;4040;42.848;23.034;2023-03-12T10:38:29;67518.78;;;-140.34;100.00
7990;BME280;4040;42.848;23.034;2023-03-12T10:44:22;67518.78;;;-140.34;100.00
7990;BME280;4040;42.848;23.034;2023-03-12T10:50:15;67518.78;;;-140.34;100.00
7990;BME280;4040;42.848;23.034;2023-03-12T10:56:06;67518.78;;;-140.34;100.00
7990;BME280;4040;42.848;23.034;2023-03-12T11:01:58;67518.78;;;-140.34;100.00
7990;BME280;4040;42.848;23.034;2023-03-12T11:07:47;67518.78;;;-140.34;100.00
7990;BME280;4040;42.848;23.034;2023-03-12T11:13:37;67518.78;;;-140.34;100.00
7990;BME280;4040;42.848;23.034;2023-03-12T11:19:30;67518.78;;;-140.34;100.00
7990;BME280;4040;42.848;23.034;2023-03-12T11:25:22;67518.78;;;-140.34;100.00
7990;BME280;4040;42.848;23.034;2023-03-12T11:35:41;67518.78;;;-140.34;100.00
7990;BME280;4040;42.848;23.034;2023-03-12T11:41:48;67518.78;;;-140.34;100.00
7990;BME280;4040;42.848;23.034;2023-03-12T11:47:54;67518.78;;;-140.34;100.00
7990;BME280;4040;42.848;23.034;2023-03-12T11:54:02;67518.78;;;-140.34;100.00
7990;BME280;4040;42.848;23.034;2023-03-12T12:00:05;67518.78;;;-140.34;100.00
7990;BME280;4040;42.848;23.034;2023-03-12T12:06:01;67518.78;;;-140.34;100.00
7990;BME280;4040;42.848;23.034;2023-03-12T12:12:13;67518.78;;;-140.34;100.00
7990;BME280;4040;42.848;23.034;2023-03-12T12:18:22;67518.78;;;-140.34;100.00
7990;BME280;4040;42.848;23.034;2023-03-12T12:24:25;67518.78;;;-140.34;100.00
7990;BME280;4040;42.848;23.034;2023-03-12T12:30:23;67518.78;;;-140.34;100.00
7990;BME280;4040;42.848;23.034;2023-03-12T12:36:16;67518.78;;;-140.34;100.00
7990;BME280;4040;42.848;23.034;2023-03-12T12:42:07;67518.78;;;-140.34;100.00
7990;BME280;4040;42.848;23.034;2023-03-12T12:48:02;67518.78;;;-140.34;100.00
7990;BME280;4040;42.848;23.034;2023-03-12T12:53:58;67518.78;;;-140.34;100.00
7990;BME280;4040;42.848;23.034;2023-03-12T13:00:00;67518.78;;;-140.34;100.00
7990;BME280;4040;42.848;23.034;2023-03-12T13:05:56;67518.78;;;-140.34;100.00
7990;BME280;4040;42.848;23.034;2023-03-12T13:11:46;67518.78;;;-140.34;100.00
7990;BME280;4040;42.848;23.034;2023-03-12T13:18:00;67518.78;;;-140.34;100.00
7990;BME280;4040;42.848;23.034;2023-03-12T13:23:58;67518.78;;;-140.34;100.00
7990;BME280;4040;42.848;23.034;2023-03-12T13:29:52;67518.78;;;-140.34;100.00
7990;BME280;4040;42.848;23.034;2023-03-12T13:36:09;67518.78;;;-140.34;100.00
7990;BME280;4040;42.848;23.034;2023-03-12T13:42:00;67518.78;;;-140.34;100.00
7990;BME280;4040;42.848;23.034;2023-03-12T13:47:53;67518.78;;;-140.34;100.00
7990;BME280;4040;42.848;23.034;2023-03-12T13:53:47;67518.78;;;-140.34;100.00
7990;BME280;4040;42.848;23.034;2023-03-12T13:59:43;67518.78;;;-140.34;100.00
7990;BME280;4040;42.848;23.034;2023-03-12T14:05:43;67518.78;;;-140.34;100.00
7990;BME280;4040;42.848;23.034;2023-03-12T14:11:42;67518.78;;;-140.34;100.00
7990;BME280;4040;42.848;23.034;2023-03-12T14:17:37;67518.78;;;-140.34;100.00
7990;BME280;4040;42.848;23.034;2023-03-12T14:23:28;67518.78;;;-140.34;100.00
7990;BME280;4040;42.848;23.034;2023-03-12T14:29:20;67518.78;;;-140.34;100.00
7990;BME280;4040;42.848;23.034;2023-03-12T14:31:50;67518.78;;;-140.34;100.00
7990;BME280;4040;42.848;23.034;2023-03-12T14:37:43;67518.78;;;-140.34;100.00
7990;BME280;4040;42.848;23.034;2023-03-12T14:43:34;67518.78;;;-140.34;100.00
7990;BME280;4040;42.848;23.034;2023-03-12T14:49:23;67518.78;;;-140.34;100.00
7990;BME280;4040;42.848;23.034;2023-03-12T14:55:16;67518.78;;;-140.34;100.00
7990;BME280;4040;42.848;23.034;2023-03-12T15:01:11;67518.78;;;-140.34;100.00
7990;BME280;4040;42.848;23.034;2023-03-12T15:07:01;67518.78;;;-140.34;100.00
7990;BME280;4040;42.848;23.034;2023-03-12T15:12:54;67518.78;;;-140.34;100.00
7990;BME280;4040;42.848;23.034;2023-03-12T15:18:44;67518.78;;;-140.34;100.00
7990;BME280;4040;42.848;23.034;2023-03-12T15:24:37;67518.78;;;-140.34;100.00
7990;BME280;4040;42.848;23.034;2023-03-12T15:30:29;67518.78;;;-140.34;100.00
7990;BME280;4040;42.848;23.034;2023-03-12T15:36:26;67518.78;;;-140.34;100.00
7990;BME280;4040;42.848;23.034;2023-03-12T15:42:16;67518.78;;;-140.34;100.00
7990;BME280;4040;42.848;23.034;2023-03-12T15:48:22;67518.78;;;-140.34;100.00
7990;BME280;4040;42.848;23.034;2023-03-12T15:54:23;67518.78;;;-140.34;100.00
7990;BME280;4040;42.848;23.034;2023-03-12T16:00:20;67518.78;;;-140.34;100.00
7990;BME280;4040;42.848;23.034;2023-03-12T16:06:12;67518.78;;;-140.34;100.00
7990;BME280;4040;42.848;23.034;2023-03-12T16:12:01;67518.78;;;-140.34;100.00
7990;BME280;4040;42.848;23.034;2023-03-12T16:17:50;67518.78;;;-140.34;100.00
7990;BME280;4040;42.848;23.034;2023-03-12T16:23:40;67518.78;;;-140.34;100.00
7990;BME280;4040;42.848;23.034;2023-03-12T16:29:31;67518.78;;;-140.34;100.00
7990;BME280;4040;42.848;23.034;2023-03-12T16:35:20;67518.78;;;-140.34;100.00
7990;BME280;4040;42.848;23.034;2023-03-12T16:41:12;67518.78;;;-140.34;100.00
7990;BME280;4040;42.848;23.034;2023-03-12T16:47:02;67518.78;;;-140.34;100.00
7990;BME280;4040;42.848;23.034;2023-03-12T16:52:51;67518.78;;;-140.34;100.00
7990;BME280;4040;42.848;23.034;2023-03-12T16:58:41;67518.78;;;-140.34;100.00
7990;BME280;4040;42.848;23.034;2023-03-12T17:04:30;67518.78;;;-140.34;100.00
7990;BME280;4040;42.848;23.034;2023-03-12T17:10:29;67518.78;;;-140.34;100.00
7990;BME280;4040;42.848;23.034;2023-03-12T17:16:20;67518.78;;;-140.34;100.00
7990;BME280;4040;42.848;23.034;2023-03-12T17:22:09;67518.78;;;-140.34;100.00
7990;BME280;4040;42.848;23.034;2023-03-12T17:27:58;67518.78;;;-140.34;100.00
7990;BME280;4040;42.848;23.034;2023-03-12T17:38:11;67518.78;;;-140.34;100.00
7990;BME280;4040;42.848;23.034;2023-03-12T17:44:00;67518.78;;;-140.34;100.00
7990;BME280;4040;42.848;23.034;2023-03-12T17:49:49;67518.78;;;-140.34;100.00
7990;BME280;4040;42.848;23.034;2023-03-12T17:55:40;67518.78;;;-140.34;100.00
7990;BME280;4040;42.848;23.034;2023-03-12T18:01:28;67518.78;;;-140.34;100.00
7990;BME280;4040;42.848;23.034;2023-03-12T18:07:17;67518.78;;;-140.34;100.00
7990;BME280;4040;42.848;23.034;2023-03-12T18:13:07;67518.78;;;-140.34;100.00
7990;BME280;4040;42.848;23.034;2023-03-12T18:18:57;67518.78;;;-140.34;100.00
7990;BME280;4040;42.848;23.034;2023-03-12T18:24:46;67518.78;;;-140.34;100.00
7990;BME280;4040;42.848;23.034;2023-03-12T18:30:36;67518.78;;;-140.34;100.00
7990;BME280;4040;42.848;23.034;2023-03-12T18:40:47;67518.78;;;-140.34;100.00
7990;BME280;4040;42.848;23.034;2023-03-12T18:46:37;67518.78;;;-140.34;100.00
7990;BME280;4040;42.848;23.034;2023-03-12T18:52:26;67518.78;;;-140.34;100.00
7990;BME280;4040;42.848;23.034;2023-03-12T18:58:15;67518.78;;;-140.34;100.00
7990;BME280;4040;42.848;23.034;2023-03-12T19:04:05;67518.78;;;-140.34;100.00
7990;BME280;4040;42.848;23.034;2023-03-12T19:09:53;67518.78;;;-140.34;100.00
7990;BME280;4040;42.848;23.034;2023-03-12T19:15:42;67518.78;;;-140.34;100.00
7990;BME280;4040;42.848;23.034;2023-03-12T19:21:32;67518.78;;;-140.34;100.00
7990;BME280;4040;42.848;23.034;2023-03-12T19:27:21;67518.78;;;-140.34;100.00
7990;BME280;4040;42.848;23.034;2023-03-12T19:33:10;67518.78;;;-140.34;100.00
7990;BME280;4040;42.848;23.034;2023-03-12T19:43:23;67518.78;;;-140.34;100.00
7990;BME280;4040;42.848;23.034;2023-03-12T19:49:12;67518.78;;;-140.34;100.00
7990;BME280;4040;42.848;23.034;2023-03-12T19:55:04;67518.78;;;-140.34;100.00
7990;BME280;4040;42.848;23.034;2023-03-12T20:00:57;67518.78;;;-140.34;100.00
7990;BME280;4040;42.848;23.034;2023-03-12T20:06:47;67518.78;;;-140.34;100.00
7990;BME280;4040;42.848;23.034;2023-03-12T20:12:36;67518.78;;;-140.34;100.00
7990;BME280;4040;42.848;23.034;2023-03-12T20:18:26;67518.78;;;-140.34;100.00
7990;BME280;4040;42.848;23.034;2023-03-12T20:24:15;67518.78;;;-140.34;100.00
7990;BME280;4040;42.848;23.034;2023-03-12T20:30:05;67518.78;;;-140.34;100.00
7990;BME280;4040;42.848;23.034;2023-03-12T20:35:58;67518.78;;;-140.34;100.00
7990;BME280;4040;42.848;23.034;2023-03-12T20:46:12;67518.78;;;-140.34;100.00
7990;BME280;4040;42.848;23.034;2023-03-12T20:52:03;67518.78;;;-140.34;100.00
7990;BME280;4040;42.848;23.034;2023-03-12T20:57:52;67518.78;;;-140.34;100.00
7990;BME280;4040;42.848;23.034;2023-03-12T21:03:41;67518.78;;;-140.34;100.00
7990;BME280;4040;42.848;23.034;2023-03-12T21:09:32;67518.78;;;-140.34;100.00
7990;BME280;4040;42.848;23.034;2023-03-12T21:15:21;67518.78;;;-140.34;100.00
7990;BME280;4040;42.848;23.034;2023-03-12T21:21:10;67518.78;;;-140.34;100.00
7990;BME280;4040;42.848;23.034;2023-03-12T21:27:01;67518.78;;;-140.34;100.00
7990;BME280;4040;42.848;23.034;2023-03-12T21:32:50;67518.78;;;-140.34;100.00
7990;BME280;4040;42.848;23.034;2023-03-12T21:38:40;67518.78;;;-140.34;100.00
7990;BME280;4040;42.848;23.034;2023-03-12T21:48:54;67518.78;;;-140.34;100.00
7990;BME280;4040;42.848;23.034;2023-03-12T21:54:43;67518.78;;;-140.34;100.00
7990;BME280;4040;42.848;23.034;2023-03-12T22:00:32;67518.78;;;-140.34;100.00
7990;BME280;4040;42.848;23.034;2023-03-12T22:06:23;67518.78;;;-140.34;100.00
7990;BME280;4040;42.848;23.034;2023-03-12T22:12:12;67518.78;;;-140.34;100.00
7990;BME280;4040;42.848;23.034;2023-03-12T22:18:01;67518.78;;;-140.34;100.00
7990;BME280;4040;42.848;23.034;2023-03-12T22:23:53;67518.78;;;-140.34;100.00
7990;BME280;4040;42.848;23.034;2023-03-12T22:29:43;67518.78;;;-140.34;100.00
7990;BME280;4040;42.848;23.034;2023-03-12T22:35:32;67518.78;;;-140.34;100.00
7990;BME280;4040;42.848;23.034;2023-03-12T22:41:24;67518.78;;;-140.34;100.00
7990;BME280;4040;42.848;23.034;2023-03-12T22:51:35;67518.78;;;-140.34;100.00
7990;BME280;4040;42.848;23.034;2023-03-12T22:57:25;67518.78;;;-140.34;100.00
7990;BME280;4040;42.848;23.034;2023-03-12T23:08:31;95126.47;;;-1.65;100.00
7990;BME280;4040;42.848;23.034;2023-03-12T23:14:19;95166.88;;;-1.36;100.00
7990;BME280;4040;42.848;23.034;2023-03-12T23:20:10;95172.31;;;-1.32;100.00
7990;BME280;4040;42.848;23.034;2023-03-12T23:26:01;95161.81;;;-1.49;100.00
7990;BME280;4040;42.848;23.034;2023-03-12T23:31:50;95164.47;;;-1.58;100.00
7990;BME280;4040;42.848;23.034;2023-03-12T23:37:39;95178.06;;;-1.76;100.00
7990;BME280;4040;42.848;23.034;2023-03-12T23:43:29;95164.72;;;-1.88;100.00
7990;BME280;4040;42.848;23.034;2023-03-12T23:49:18;95195.56;;;-1.63;100.00
7990;BME280;4040;42.848;23.034;2023-03-12T23:55:08;95193.72;;;-1.63;100.00
